Time;durP1;ratioP1;P1;durP2;ratioP2;P2;SDS_P1;SDS_P2;PMS_P1;PMS_P2;Temp;Humidity;BMP_temperature;BMP_pressure;BME280_temperature;BME280_humidity;BME280_pressure;Samples;Min_cycle;Max_cycle;Signal;HPM_P1;HPM_P2
2021/06/28 00:01:19;;;;;;;4.88;4.35;;;20.00;99.90;;;;;;5064403;28;20032;-41
2021/06/28 00:03:45;;;;;;;4.95;4.55;;;20.00;99.90;;;;;;5060169;28;20017;-41
2021/06/28 00:06:12;;;;;;;5.10;4.70;;;20.00;99.90;;;;;;5062042;28;20425;-41
2021/06/28 00:08:38;;;;;;;5.88;5.38;;;19.90;99.90;;;;;;5062128;28;20021;-42
2021/06/28 00:11:06;;;;;;;4.93;4.50;;;20.00;99.90;;;;;;5058592;28;20020;-40
2021/06/28 00:13:37;;;;;;;4.72;4.32;;;19.90;99.90;;;;;;5064738;28;20107;-42
2021/06/28 00:16:02;;;;;;;5.93;5.43;;;19.90;99.90;;;;;;5056948;28;20038;-41
2021/06/28 00:18:31;;;;;;;6.03;5.45;;;19.80;99.90;;;;;;5065589;28;20024;-41
2021/06/28 00:20:58;;;;;;;7.35;5.22;;;19.70;99.90;;;;;;5055222;28;20089;-41
2021/06/28 00:23:26;;;;;;;6.00;5.38;;;19.70;99.90;;;;;;5060654;28;20017;-41
2021/06/28 00:25:52;;;;;;;5.35;4.93;;;19.60;99.90;;;;;;5058048;28;20025;-42
2021/06/28 00:28:18;;;;;;;5.00;4.60;;;19.60;99.90;;;;;;5047308;28;20039;-40
2021/06/28 00:30:44;;;;;;;5.40;4.90;;;19.60;99.90;;;;;;5058824;28;20554;-40
2021/06/28 00:33:15;;;;;;;5.60;4.80;;;19.60;99.90;;;;;;5047268;28;20024;-41
2021/06/28 00:35:41;;;;;;;5.60;5.05;;;19.60;99.90;;;;;;5059338;28;20028;-41
2021/06/28 00:38:07;;;;;;;5.07;4.68;;;19.60;99.90;;;;;;5046321;28;20033;-40
2021/06/28 00:40:40;;;;;;;5.25;4.78;;;19.60;99.90;;;;;;5054561;28;20047;-40
2021/06/28 00:43:09;;;;;;;5.85;5.35;;;19.60;99.90;;;;;;5026477;28;20017;-39
2021/06/28 00:45:39;;;;;;;5.57;5.07;;;19.60;99.90;;;;;;5051996;28;20086;-41
2021/06/28 00:48:16;;;;;;;4.82;4.43;;;19.60;99.90;;;;;;5048116;28;20025;-40
2021/06/28 00:50:45;;;;;;;5.35;4.70;;;19.50;99.90;;;;;;5056562;28;20106;-40
2021/06/28 00:53:14;;;;;;;5.47;4.97;;;19.50;99.90;;;;;;5048258;28;20125;-40
2021/06/28 00:55:41;;;;;;;4.65;4.25;;;19.50;99.90;;;;;;5055338;28;20055;-41
2021/06/28 00:58:08;;;;;;;5.80;5.30;;;19.40;99.90;;;;;;5049580;28;20036;-38
2021/06/28 01:00:34;;;;;;;5.95;5.40;;;19.40;99.90;;;;;;5053292;28;20028;-40
2021/06/28 01:03:01;;;;;;;6.20;5.60;;;19.40;99.90;;;;;;5052533;28;20215;-41
2021/06/28 01:05:32;;;;;;;6.07;5.57;;;19.30;99.90;;;;;;5050342;28;20048;-40
2021/06/28 01:07:58;;;;;;;5.72;5.22;;;19.30;99.90;;;;;;5053839;28;20025;-41
2021/06/28 01:10:23;;;;;;;5.55;5.05;;;19.30;99.90;;;;;;5048744;28;20618;-40
2021/06/28 01:12:51;;;;;;;5.55;5.05;;;19.30;99.90;;;;;;5056161;28;20060;-40
2021/06/28 01:15:17;;;;;;;6.25;5.60;;;19.30;99.90;;;;;;5047760;28;20431;-41
2021/06/28 01:17:44;;;;;;;5.47;5.00;;;19.30;99.90;;;;;;5057356;28;20078;-41
2021/06/28 01:20:16;;;;;;;6.25;5.53;;;19.20;99.90;;;;;;5046978;28;20429;-41
2021/06/28 01:22:50;;;;;;;5.40;4.90;;;19.20;99.90;;;;;;5055299;28;20033;-41
2021/06/28 01:25:19;;;;;;;5.60;5.13;;;19.20;99.90;;;;;;5065974;28;20160;-41
2021/06/28 01:27:45;;;;;;;5.38;4.88;;;19.30;99.90;;;;;;5054213;28;20032;-41
2021/06/28 01:30:20;;;;;;;5.90;5.40;;;19.30;99.90;;;;;;5066436;28;20032;-41
2021/06/28 01:32:47;;;;;;;6.05;5.50;;;19.30;99.90;;;;;;5053479;28;20525;-41
2021/06/28 01:35:14;;;;;;;6.03;5.53;;;19.30;99.90;;;;;;5065741;28;20425;-39
2021/06/28 01:37:40;;;;;;;5.72;5.22;;;19.20;99.90;;;;;;5054273;28;20021;-39
2021/06/28 01:40:08;;;;;;;5.13;4.72;;;19.20;99.90;;;;;;5065962;28;20035;-40
2021/06/28 01:42:37;;;;;;;6.13;5.53;;;19.30;99.90;;;;;;5054792;28;20136;-39
2021/06/28 01:45:09;;;;;;;6.18;5.63;;;19.30;99.90;;;;;;5065481;28;20021;-41
2021/06/28 01:47:34;;;;;;;6.68;6.07;;;19.30;99.90;;;;;;5055212;28;20032;-41
2021/06/28 01:50:04;;;;;;;7.00;6.30;;;19.20;99.90;;;;;;5063640;28;20036;-42
2021/06/28 01:52:30;;;;;;;5.88;5.38;;;19.30;99.90;;;;;;5058740;28;20044;-42
2021/06/28 01:54:55;;;;;;;6.50;5.90;;;19.20;99.90;;;;;;5065291;28;20330;-41
2021/06/28 01:57:21;;;;;;;6.18;5.63;;;19.20;99.90;;;;;;5063931;28;20426;-41
2021/06/28 01:59:46;;;;;;;6.18;5.57;;;19.20;99.90;;;;;;5062641;28;20039;-43
2021/06/28 02:02:12;;;;;;;5.88;5.38;;;19.20;99.90;;;;;;5066131;28;20016;-40
2021/06/28 02:04:37;;;;;;;6.25;5.75;;;19.20;99.90;;;;;;5060842;28;20069;-41
2021/06/28 02:07:07;;;;;;;6.10;5.60;;;19.20;99.90;;;;;;5067963;28;20025;-41
2021/06/28 02:09:34;;;;;;;6.30;5.70;;;19.10;99.90;;;;;;5058061;28;20119;-42
2021/06/28 02:12:00;;;;;;;6.22;5.40;;;19.20;99.90;;;;;;5067509;28;20186;-43
2021/06/28 02:14:26;;;;;;;6.57;5.80;;;19.10;99.90;;;;;;5058454;28;20103;-40
2021/06/28 02:16:51;;;;;;;5.82;5.32;;;19.10;99.90;;;;;;5068206;28;20044;-41
2021/06/28 02:19:17;;;;;;;5.60;5.10;;;19.20;99.90;;;;;;5056657;28;20043;-40
2021/06/28 02:21:47;;;;;;;6.10;5.50;;;19.10;99.90;;;;;;5069648;28;20122;-41
2021/06/28 02:24:14;;;;;;;5.68;5.18;;;19.10;99.90;;;;;;5055986;28;20134;-40
2021/06/28 02:26:41;;;;;;;5.30;4.75;;;19.10;99.90;;;;;;5069431;28;20017;-39
2021/06/28 02:29:07;;;;;;;5.90;5.30;;;19.10;99.90;;;;;;5056995;28;20540;-40
2021/06/28 02:31:33;;;;;;;6.07;5.57;;;19.10;99.90;;;;;;5068484;28;20158;-42
2021/06/28 02:33:59;;;;;;;5.97;5.45;;;19.10;99.90;;;;;;5059497;28;20150;-45
2021/06/28 02:36:27;;;;;;;5.20;4.80;;;19.10;99.90;;;;;;5065214;28;20111;-41
2021/06/28 02:38:55;;;;;;;6.40;5.80;;;19.00;99.90;;;;;;5062354;28;20021;-40
2021/06/28 02:41:21;;;;;;;5.75;5.15;;;19.00;99.90;;;;;;5063837;28;20025;-42
2021/06/28 02:43:48;;;;;;;6.10;5.45;;;19.00;99.90;;;;;;5063535;28;20032;-41
2021/06/28 02:46:14;;;;;;;5.82;5.32;;;19.00;99.90;;;;;;5061535;28;20024;-41
2021/06/28 02:48:41;;;;;;;6.05;5.47;;;19.00;99.90;;;;;;5066609;28;20071;-40
2021/06/28 02:51:08;;;;;;;5.78;5.28;;;19.00;99.90;;;;;;5058654;28;20032;-40
2021/06/28 02:53:34;;;;;;;5.53;5.13;;;18.90;99.90;;;;;;5067656;28;20025;-41
2021/06/28 02:56:12;;;;;;;5.45;4.95;;;18.90;99.90;;;;;;5056882;28;20586;-41
2021/06/28 02:58:39;;;;;;;5.53;5.00;;;18.90;99.90;;;;;;5067239;28;20028;-39
2021/06/28 03:01:05;;;;;;;5.72;5.22;;;18.90;99.90;;;;;;5057038;28;20013;-41
2021/06/28 03:03:30;;;;;;;5.07;4.68;;;18.90;99.90;;;;;;5067906;28;20380;-41
2021/06/28 03:05:56;;;;;;;4.65;4.25;;;18.90;99.90;;;;;;5054698;28;20173;-41
2021/06/28 03:08:21;;;;;;;5.03;4.63;;;18.90;99.90;;;;;;5068329;28;20571;-40
2021/06/28 03:10:50;;;;;;;5.25;4.85;;;18.80;99.90;;;;;;5055253;28;20040;-41
2021/06/28 03:13:15;;;;;;;4.80;4.30;;;18.80;99.90;;;;;;5068307;28;20045;-41
2021/06/28 03:15:41;;;;;;;5.03;4.63;;;18.80;99.90;;;;;;5056544;28;20051;-41
2021/06/28 03:18:10;;;;;;;5.20;4.80;;;18.80;99.90;;;;;;5065545;28;20028;-41
2021/06/28 03:20:35;;;;;;;4.63;4.22;;;18.80;99.90;;;;;;5058709;28;20066;-40
2021/06/28 03:23:01;;;;;;;4.88;4.47;;;18.80;99.90;;;;;;5062460;28;20021;-41
2021/06/28 03:25:27;;;;;;;5.15;4.75;;;18.80;99.90;;;;;;5054017;28;20544;-41
2021/06/28 03:27:52;;;;;;;5.35;4.85;;;18.80;99.90;;;;;;5053731;28;20656;-40
2021/06/28 03:30:18;;;;;;;5.25;4.53;;;18.80;99.90;;;;;;5051853;28;20033;-41
2021/06/28 03:32:45;;;;;;;4.90;4.50;;;18.80;99.90;;;;;;5056023;28;20071;-42
2021/06/28 03:35:12;;;;;;;4.90;4.50;;;18.70;99.90;;;;;;5049562;28;20112;-41
2021/06/28 03:37:39;;;;;;;5.28;4.78;;;18.80;99.90;;;;;;5058419;28;20049;-39
2021/06/28 03:40:09;;;;;;;5.68;5.18;;;18.70;99.90;;;;;;5048509;28;20024;-42
2021/06/28 03:42:35;;;;;;;5.47;5.05;;;18.80;99.90;;;;;;5059163;28;20017;-38
2021/06/28 03:45:03;;;;;;;5.78;5.00;;;18.80;99.90;;;;;;5048780;28;20059;-41
2021/06/28 03:47:29;;;;;;;5.05;4.65;;;18.70;99.90;;;;;;5055563;28;20025;-41
2021/06/28 03:49:54;;;;;;;5.13;4.72;;;18.70;99.90;;;;;;5047101;28;20052;-40
2021/06/28 03:52:26;;;;;;;6.85;5.30;;;18.70;99.90;;;;;;5060407;28;20036;-40
2021/06/28 03:54:54;;;;;;;5.13;4.70;;;18.70;99.90;;;;;;5047296;28;20108;-41
2021/06/28 03:57:23;;;;;;;5.63;5.13;;;18.70;99.90;;;;;;5060292;28;20112;-41
2021/06/28 03:59:48;;;;;;;5.80;5.30;;;18.70;99.90;;;;;;5047953;28;20021;-41
2021/06/28 04:02:14;;;;;;;6.00;5.30;;;18.70;99.90;;;;;;5057577;28;20382;-40
2021/06/28 04:04:39;;;;;;;5.65;5.15;;;18.70;99.90;;;;;;5048154;28;20567;-40
2021/06/28 04:07:05;;;;;;;5.18;4.78;;;18.70;99.90;;;;;;5056600;28;20060;-41
2021/06/28 04:09:33;;;;;;;5.53;5.03;;;18.70;99.90;;;;;;5050443;28;20687;-39
2021/06/28 04:11:59;;;;;;;5.82;5.38;;;18.70;99.90;;;;;;5053596;28;20656;-41
2021/06/28 04:14:24;;;;;;;6.00;5.50;;;18.70;99.90;;;;;;5053008;28;20021;-43
2021/06/28 04:16:50;;;;;;;5.28;4.78;;;18.70;99.90;;;;;;5050120;28;20032;-40
2021/06/28 04:19:15;;;;;;;6.00;5.10;;;18.70;99.90;;;;;;5055552;28;20842;-40
2021/06/28 04:21:41;;;;;;;5.70;5.15;;;18.70;99.90;;;;;;5048143;28;20029;-41
2021/06/28 04:24:07;;;;;;;5.68;5.18;;;18.80;99.90;;;;;;5056176;28;20029;-42
2021/06/28 04:26:33;;;;;;;5.13;4.63;;;18.70;99.90;;;;;;5048378;28;20021;-41
2021/06/28 04:28:59;;;;;;;6.32;5.72;;;18.70;99.90;;;;;;5057734;28;20432;-41
2021/06/28 04:31:27;;;;;;;5.82;5.32;;;18.70;99.90;;;;;;5047090;28;20465;-41
2021/06/28 04:33:52;;;;;;;6.20;5.65;;;18.70;99.90;;;;;;5053681;28;20047;-40
2021/06/28 04:36:18;;;;;;;7.38;5.90;;;18.70;99.90;;;;;;5066902;28;20012;-40
2021/06/28 04:38:43;;;;;;;5.88;5.38;;;18.70;99.90;;;;;;5053766;28;20457;-41
2021/06/28 04:41:09;;;;;;;7.00;5.90;;;18.70;99.90;;;;;;5066933;28;20103;-39
2021/06/28 04:43:37;;;;;;;6.80;6.10;;;18.70;99.90;;;;;;5054701;28;20083;-41
2021/06/28 04:46:03;;;;;;;6.97;5.60;;;18.80;99.90;;;;;;5066021;28;20064;-41
2021/06/28 04:48:28;;;;;;;6.65;5.95;;;18.80;99.90;;;;;;5057984;28;20068;-38
2021/06/28 04:50:54;;;;;;;6.78;6.18;;;18.90;99.90;;;;;;5062602;28;20105;-40
2021/06/28 04:53:19;;;;;;;5.32;4.93;;;18.90;99.90;;;;;;5060540;28;20786;-41
2021/06/28 04:55:46;;;;;;;5.95;5.43;;;18.90;99.90;;;;;;5060943;28;20025;-40
2021/06/28 04:58:11;;;;;;;5.70;5.15;;;19.00;99.90;;;;;;5062485;28;20655;-41
2021/06/28 05:00:37;;;;;;;6.45;5.85;;;19.00;99.90;;;;;;5058283;28;20037;-41
2021/06/28 05:03:03;;;;;;;6.53;5.75;;;19.10;99.90;;;;;;5064763;28;20025;-41
2021/06/28 05:05:29;;;;;;;7.30;6.60;;;19.10;99.90;;;;;;5055548;28;20047;-42
2021/06/28 05:07:56;;;;;;;7.20;6.50;;;19.20;99.90;;;;;;5065016;28;20666;-42
2021/06/28 05:10:24;;;;;;;7.10;6.40;;;19.20;99.90;;;;;;5055874;28;20032;-41
2021/06/28 05:12:50;;;;;;;7.38;6.68;;;19.20;99.90;;;;;;5066109;28;20434;-42
2021/06/28 05:15:15;;;;;;;7.55;6.85;;;19.20;99.90;;;;;;5054062;28;20547;-41
2021/06/28 05:17:42;;;;;;;7.78;7.05;;;19.30;99.90;;;;;;5066713;28;20502;-41
2021/06/28 05:20:11;;;;;;;7.95;7.15;;;19.30;99.90;;;;;;5053265;28;20037;-40
2021/06/28 05:22:40;;;;;;;8.25;7.00;;;19.30;99.90;;;;;;5067488;28;20028;-41
2021/06/28 05:25:07;;;;;;;8.30;7.47;;;19.40;99.90;;;;;;5060369;28;20035;-41
2021/06/28 05:27:34;;;;;;;7.60;6.85;;;19.40;99.90;;;;;;5027587;28;20021;-41
2021/06/28 05:30:00;;;;;;;7.75;7.05;;;19.50;99.90;;;;;;5054415;28;20439;-41
2021/06/28 05:32:27;;;;;;;7.75;7.05;;;19.50;99.90;;;;;;5052666;28;20095;-41
2021/06/28 05:34:53;;;;;;;8.52;7.72;;;19.50;99.90;;;;;;5057558;28;21365;-40
2021/06/28 05:37:19;;;;;;;9.10;8.10;;;19.60;99.90;;;;;;5055579;28;20049;-42
2021/06/28 05:39:46;;;;;;;9.30;8.40;;;19.60;99.90;;;;;;5054852;28;20029;-41
2021/06/28 05:42:12;;;;;;;9.57;8.68;;;19.60;99.90;;;;;;5057985;28;20156;-41
2021/06/28 05:44:41;;;;;;;9.95;8.70;;;19.70;99.90;;;;;;5053564;28;20131;-41
2021/06/28 05:47:07;;;;;;;9.18;8.35;;;19.70;99.90;;;;;;5058998;28;20078;-43
2021/06/28 05:49:36;;;;;;;8.65;7.82;;;19.70;99.90;;;;;;5051451;28;20037;-41
2021/06/28 05:52:02;;;;;;;9.18;8.35;;;19.80;99.90;;;;;;5061247;28;20028;-41
2021/06/28 05:54:27;;;;;;;9.80;8.90;;;19.80;99.90;;;;;;5050726;28;20025;-41
2021/06/28 05:56:53;;;;;;;9.95;9.05;;;19.90;99.90;;;;;;5053276;28;20028;-39
2021/06/28 05:59:19;;;;;;;10.27;9.27;;;19.90;99.90;;;;;;5067160;28;20101;-42
2021/06/28 06:01:44;;;;;;;10.40;9.40;;;20.00;99.90;;;;;;5054286;28;20021;-40
2021/06/28 06:04:14;;;;;;;9.27;8.48;;;20.00;99.90;;;;;;5068384;28;20024;-42
2021/06/28 06:06:44;;;;;;;9.30;8.40;;;20.00;99.90;;;;;;5057143;28;20048;-40
2021/06/28 06:09:10;;;;;;;8.40;7.47;;;20.00;99.90;;;;;;5056522;28;20136;-42
2021/06/28 06:11:36;;;;;;;8.80;8.00;;;20.10;99.90;;;;;;5052933;28;20080;-43
2021/06/28 06:14:01;;;;;;;8.65;7.72;;;20.10;99.90;;;;;;5068285;28;20047;-41
2021/06/28 06:16:27;;;;;;;8.23;7.43;;;20.10;99.90;;;;;;5059181;28;20107;-41
2021/06/28 06:18:53;;;;;;;8.52;7.78;;;20.20;99.90;;;;;;5065811;28;20039;-40
2021/06/28 06:21:22;;;;;;;9.38;8.57;;;20.20;99.90;;;;;;5062663;28;20388;-42
2021/06/28 06:23:48;;;;;;;10.77;9.73;;;20.20;99.90;;;;;;5057085;28;20036;-39
2021/06/28 06:26:14;;;;;;;9.73;8.82;;;20.30;99.90;;;;;;5050844;28;20041;-39
2021/06/28 06:28:39;;;;;;;9.60;8.70;;;20.30;99.90;;;;;;5052845;28;20021;-41
2021/06/28 06:31:05;;;;;;;12.38;11.07;;;20.30;99.90;;;;;;5053123;28;20498;-41
2021/06/28 06:33:31;;;;;;;12.50;11.20;;;20.40;99.90;;;;;;5059422;28;20021;-40
2021/06/28 06:35:56;;;;;;;10.10;9.20;;;20.40;99.90;;;;;;5051866;28;20503;-41
2021/06/28 06:38:22;;;;;;;10.77;8.20;;;20.40;99.90;;;;;;5059211;28;20091;-41
2021/06/28 06:40:48;;;;;;;9.35;8.50;;;20.40;99.90;;;;;;5041236;28;20079;-43
2021/06/28 06:43:16;;;;;;;9.02;8.23;;;20.40;99.90;;;;;;5045991;28;20024;-41
2021/06/28 06:45:42;;;;;;;10.27;9.27;;;20.50;99.90;;;;;;5020995;28;20108;-41
2021/06/28 06:48:08;;;;;;;9.48;8.50;;;20.50;99.90;;;;;;5049330;28;20115;-41
2021/06/28 06:50:33;;;;;;;8.88;8.07;;;20.50;99.90;;;;;;5046440;28;20029;-41
2021/06/28 06:53:02;;;;;;;9.93;9.02;;;20.50;99.90;;;;;;5060069;28;20374;-42
2021/06/28 06:55:28;;;;;;;8.85;8.05;;;20.50;99.90;;;;;;5049353;28;20021;-40
2021/06/28 06:57:54;;;;;;;9.63;8.65;;;20.60;99.90;;;;;;5058094;28;20086;-41
2021/06/28 07:00:21;;;;;;;8.48;7.68;;;20.60;99.90;;;;;;5051735;28;20380;-41
2021/06/28 07:02:48;;;;;;;9.30;8.38;;;20.70;99.90;;;;;;5056102;28;20390;-41
2021/06/28 07:05:15;;;;;;;12.70;11.50;;;20.70;99.90;;;;;;5053684;28;20075;-39
2021/06/28 07:07:41;;;;;;;12.10;10.80;;;20.80;99.90;;;;;;5053727;28;20100;-40
2021/06/28 07:10:09;;;;;;;12.07;10.93;;;20.80;99.90;;;;;;5054859;28;20052;-41
2021/06/28 07:12:35;;;;;;;10.20;9.30;;;20.90;99.90;;;;;;5050871;28;20055;-40
2021/06/28 07:15:01;;;;;;;9.73;8.80;;;20.90;99.90;;;;;;5058586;28;20094;-41
2021/06/28 07:17:26;;;;;;;10.70;9.70;;;21.00;99.90;;;;;;5049419;28;20040;-41
2021/06/28 07:19:52;;;;;;;9.55;8.65;;;21.00;99.90;;;;;;5059987;28;20017;-40
2021/06/28 07:22:17;;;;;;;10.60;9.57;;;21.10;99.90;;;;;;5049676;28;20029;-41
2021/06/28 07:24:44;;;;;;;11.70;10.60;;;21.10;99.90;;;;;;5050798;28;20024;-40
2021/06/28 07:27:10;;;;;;;10.07;9.13;;;21.20;99.90;;;;;;5048786;28;20028;-41
2021/06/28 07:29:35;;;;;;;8.88;7.95;;;21.20;99.90;;;;;;5056334;28;20041;-41
2021/06/28 07:32:01;;;;;;;10.38;9.32;;;21.30;99.90;;;;;;5067984;28;20574;-41
2021/06/28 07:34:27;;;;;;;9.82;8.82;;;21.30;99.90;;;;;;5055608;28;20048;-41
2021/06/28 07:36:53;;;;;;;8.30;7.50;;;21.40;99.90;;;;;;5068586;28;20485;-41
2021/06/28 07:39:18;;;;;;;9.48;8.57;;;21.40;99.90;;;;;;5057698;28;20340;-43
2021/06/28 07:41:44;;;;;;;9.38;8.55;;;21.50;99.90;;;;;;5065333;28;20029;-41
2021/06/28 07:44:09;;;;;;;11.35;10.25;;;21.60;99.90;;;;;;5060803;28;20017;-46
2021/06/28 07:46:36;;;;;;;11.05;10.05;;;21.60;99.90;;;;;;5062707;28;20082;-41
2021/06/28 07:49:02;;;;;;;10.25;9.27;;;21.70;99.90;;;;;;5062623;28;20005;-41
2021/06/28 07:51:35;;;;;;;9.73;8.85;;;21.70;99.90;;;;;;5059935;28;20032;-40
2021/06/28 07:54:03;;;;;;;10.50;9.60;;;21.80;99.90;;;;;;5063283;28;20009;-39
2021/06/28 07:56:28;;;;;;;11.35;10.25;;;21.90;99.90;;;;;;5059232;28;20598;-42
2021/06/28 07:58:54;;;;;;;8.73;7.82;;;22.00;99.90;;;;;;5066138;28;20089;-40
2021/06/28 08:01:21;;;;;;;8.75;7.95;;;22.00;99.90;;;;;;5054985;28;20467;-39
2021/06/28 08:03:52;;;;;;;7.50;6.82;;;22.10;99.90;;;;;;5066132;28;20028;-41
2021/06/28 08:06:20;;;;;;;8.77;7.97;;;22.10;99.90;;;;;;5056250;28;20024;-40
2021/06/28 08:08:47;;;;;;;9.55;8.57;;;22.20;99.90;;;;;;5066451;28;20052;-43
2021/06/28 08:11:18;;;;;;;10.68;9.45;;;22.20;99.90;;;;;;5055387;28;20806;-41
2021/06/28 08:13:46;;;;;;;10.25;9.25;;;22.30;99.90;;;;;;5067265;28;20066;-41
2021/06/28 08:16:11;;;;;;;11.63;10.52;;;22.30;99.90;;;;;;5054502;28;20080;-41
2021/06/28 08:18:37;;;;;;;10.43;9.40;;;22.30;99.90;;;;;;5064920;28;20556;-41
2021/06/28 08:21:04;;;;;;;11.20;10.10;;;22.30;99.90;;;;;;5053804;28;20025;-41
2021/06/28 08:23:30;;;;;;;11.88;10.68;;;22.30;99.90;;;;;;5047558;28;20397;-41
2021/06/28 08:25:56;;;;;;;12.50;11.30;;;22.30;99.90;;;;;;5045611;28;20024;-41
2021/06/28 08:28:22;;;;;;;9.68;8.77;;;22.30;99.90;;;;;;5038731;28;20051;-41
2021/06/28 08:30:50;;;;;;;8.85;7.95;;;22.30;99.90;;;;;;5042600;28;20033;-41
2021/06/28 08:33:16;;;;;;;9.93;9.02;;;22.30;99.90;;;;;;5040902;28;20037;-44
2021/06/28 08:35:41;;;;;;;10.13;8.93;;;22.30;99.90;;;;;;5045424;28;20043;-42
2021/06/28 08:38:09;;;;;;;12.38;11.18;;;22.30;99.90;;;;;;5053434;28;20025;-41
2021/06/28 08:40:36;;;;;;;13.80;11.90;;;22.40;99.90;;;;;;5050674;28;20025;-41
2021/06/28 08:43:06;;;;;;;13.65;12.32;;;22.40;99.90;;;;;;5052014;28;20029;-41
2021/06/28 08:45:35;;;;;;;11.40;10.30;;;22.30;99.90;;;;;;5041207;28;20119;-42
2021/06/28 08:48:02;;;;;;;10.93;9.82;;;22.30;99.90;;;;;;5038882;28;20013;-40
2021/06/28 08:50:28;;;;;;;12.93;11.73;;;22.30;99.90;;;;;;5039521;28;20036;-41
2021/06/28 08:52:54;;;;;;;10.88;9.77;;;22.40;99.90;;;;;;5057875;28;20631;-41
2021/06/28 08:55:20;;;;;;;9.40;8.50;;;22.40;99.90;;;;;;5047648;28;20033;-40
2021/06/28 08:57:45;;;;;;;12.13;11.00;;;22.50;99.90;;;;;;5055704;28;20017;-42
2021/06/28 09:00:13;;;;;;;10.25;9.35;;;22.50;99.90;;;;;;5047015;28;20021;-41
2021/06/28 09:02:43;;;;;;;12.18;10.98;;;22.60;99.90;;;;;;5062220;28;20037;-42
2021/06/28 09:05:10;;;;;;;12.25;11.07;;;22.60;99.90;;;;;;5050707;28;20043;-40
2021/06/28 09:07:36;;;;;;;12.63;11.35;;;22.70;99.90;;;;;;5063346;28;20075;-42
2021/06/28 09:10:02;;;;;;;9.48;8.57;;;22.70;99.90;;;;;;5050079;28;20488;-42
2021/06/28 09:12:28;;;;;;;8.80;7.90;;;22.80;99.90;;;;;;5061286;28;20040;-40
2021/06/28 09:14:58;;;;;;;6.95;6.35;;;22.80;99.90;;;;;;5050483;28;20035;-41
2021/06/28 09:17:29;;;;;;;7.95;7.25;;;22.80;99.90;;;;;;5051662;28;20574;-45
2021/06/28 09:20:18;;;;;;;6.70;6.10;;;22.90;99.90;;;;;;5054024;28;20043;-42
2021/06/28 09:22:46;;;;;;;7.57;6.90;;;23.00;99.90;;;;;;5048048;28;20028;-42
2021/06/28 09:25:38;;;;;;;6.93;6.32;;;23.10;99.90;;;;;;5068025;28;20056;-42
2021/06/28 09:28:04;;;;;;;7.90;7.10;;;23.30;99.90;;;;;;5059033;28;20032;-40
2021/06/28 09:30:30;;;;;;;7.57;6.57;;;23.40;99.90;;;;;;5069245;28;20043;-41
2021/06/28 09:33:00;;;;;;;5.88;5.38;;;23.40;99.90;;;;;;5060922;28;20024;-40
2021/06/28 09:35:37;;;;;;;6.47;5.88;;;23.50;99.90;;;;;;5066681;28;20037;-41
2021/06/28 09:38:05;;;;;;;7.25;6.55;;;23.50;99.90;;;;;;5060955;28;20062;-41
2021/06/28 09:40:32;;;;;;;8.57;7.78;;;23.70;99.90;;;;;;5066508;28;20032;-41
2021/06/28 09:42:58;;;;;;;7.97;7.28;;;23.90;99.90;;;;;;5063822;28;20025;-42
2021/06/28 09:45:24;;;;;;;6.93;6.32;;;24.10;99.90;;;;;;5063728;28;20020;-41
2021/06/28 09:47:51;;;;;;;7.13;6.53;;;24.30;99.90;;;;;;5066541;28;20020;-41
2021/06/28 09:50:22;;;;;;;7.40;6.70;;;24.50;99.80;;;;;;5061408;28;20035;-42
2021/06/28 09:52:56;;;;;;;7.57;6.90;;;24.70;99.70;;;;;;5068178;28;20159;-41
2021/06/28 09:55:30;;;;;;;8.98;7.88;;;24.90;99.60;;;;;;5046208;28;20021;-41
2021/06/28 09:58:17;;;;;;;8.95;7.07;;;25.00;99.40;;;;;;5036343;28;20040;-41
2021/06/28 10:00:46;;;;;;;7.45;6.75;;;25.10;99.20;;;;;;5057814;28;20036;-42
2021/06/28 10:03:27;;;;;;;6.55;5.95;;;25.10;99.20;;;;;;5051700;28;20381;-41
2021/06/28 10:06:01;;;;;;;7.30;6.68;;;25.10;99.10;;;;;;5057845;28;20495;-41
2021/06/28 10:08:35;;;;;;;8.27;7.03;;;25.10;99.10;;;;;;5052188;28;20108;-42
2021/06/28 10:11:18;;;;;;;6.63;6.03;;;25.10;99.10;;;;;;5058227;28;20041;-41
2021/06/28 10:13:54;;;;;;;6.82;6.22;;;25.10;99.00;;;;;;5051824;28;20506;-41
2021/06/28 10:16:22;;;;;;;7.15;6.55;;;25.10;98.90;;;;;;5057087;28;20408;-41
2021/06/28 10:18:49;;;;;;;6.65;6.15;;;25.20;99.00;;;;;;5052861;28;20036;-41
2021/06/28 10:21:15;;;;;;;7.28;6.57;;;25.20;98.90;;;;;;5058345;28;20029;-40
2021/06/28 10:23:41;;;;;;;7.00;6.40;;;25.30;98.80;;;;;;5053048;28;20027;-41
2021/06/28 10:26:07;;;;;;;7.90;7.25;;;25.40;98.70;;;;;;5057846;28;20180;-41
2021/06/28 10:28:37;;;;;;;7.70;7.10;;;25.40;98.60;;;;;;5049359;28;20051;-41
2021/06/28 10:31:05;;;;;;;9.55;8.75;;;25.30;98.70;;;;;;5057870;28;20036;-41
2021/06/28 10:33:31;;;;;;;9.60;8.70;;;25.30;98.60;;;;;;5069766;28;20024;-43
2021/06/28 10:36:06;;;;;;;8.85;8.05;;;25.20;98.60;;;;;;5054576;28;20024;-41
2021/06/28 10:38:55;;;;;;;8.00;7.30;;;25.20;98.60;;;;;;5069776;28;20020;-41
2021/06/28 10:41:41;;;;;;;7.57;6.88;;;25.20;98.60;;;;;;5057321;28;20029;-41
2021/06/28 10:44:12;;;;;;;9.07;8.27;;;25.30;98.60;;;;;;5050120;28;20021;-40
2021/06/28 10:46:39;;;;;;;7.97;7.18;;;25.30;98.60;;;;;;5060628;28;20041;-40
2021/06/28 10:49:06;;;;;;;9.98;9.00;;;25.30;98.60;;;;;;5048742;28;20108;-41
2021/06/28 10:51:48;;;;;;;8.70;8.00;;;25.20;98.40;;;;;;5061250;28;20029;-39
2021/06/28 10:54:16;;;;;;;6.45;5.85;;;25.20;98.50;;;;;;5049071;28;20380;-40
2021/06/28 10:56:46;;;;;;;6.40;5.80;;;25.10;98.50;;;;;;5059838;28;20025;-41
2021/06/28 10:59:15;;;;;;;7.00;6.40;;;25.10;98.50;;;;;;5049034;28;20057;-41
2021/06/28 11:02:02;;;;;;;7.88;7.18;;;25.10;98.50;;;;;;5060893;28;20021;-41
2021/06/28 11:04:27;;;;;;;8.52;7.75;;;25.10;98.60;;;;;;5048826;28;20044;-42
2021/06/28 11:06:59;;;;;;;8.23;7.38;;;25.10;98.70;;;;;;5060506;28;20376;-41
2021/06/28 11:09:47;;;;;;;7.75;6.97;;;25.00;98.80;;;;;;5048768;28;20045;-40
2021/06/28 11:12:20;;;;;;;7.63;6.82;;;25.00;98.90;;;;;;5055492;28;20097;-42
2021/06/28 11:14:49;;;;;;;7.72;7.03;;;24.90;99.00;;;;;;5068875;28;20353;-41
2021/06/28 11:17:18;;;;;;;8.35;7.65;;;24.90;99.10;;;;;;5055044;28;20449;-41
2021/06/28 11:22:27;;;;;;;7.65;6.40;;;24.70;99.20;;;;;;5047353;28;20042;-41
2021/06/28 11:25:00;;;;;;;8.77;7.88;;;24.60;99.20;;;;;;5054433;28;20037;-41
2021/06/28 11:27:26;;;;;;;7.20;6.50;;;24.60;99.30;;;;;;5054437;28;20154;-43
2021/06/28 11:29:54;;;;;;;7.65;6.95;;;24.60;99.40;;;;;;5068474;28;20037;-40
2021/06/28 11:32:25;;;;;;;7.45;6.75;;;24.50;99.50;;;;;;5055966;28;20150;-41
2021/06/28 11:34:50;;;;;;;7.20;6.60;;;24.50;99.50;;;;;;5028629;28;20806;-42
2021/06/28 11:37:16;;;;;;;7.20;6.50;;;24.40;99.60;;;;;;5052697;28;20020;-41
2021/06/28 11:39:59;;;;;;;7.47;6.78;;;24.40;99.70;;;;;;5049878;28;20148;-41
2021/06/28 11:42:31;;;;;;;7.88;7.15;;;24.30;99.70;;;;;;5048315;28;20520;-41
2021/06/28 11:45:23;;;;;;;8.25;7.55;;;24.30;99.80;;;;;;5040613;28;20048;-41
2021/06/28 11:47:48;;;;;;;7.70;7.00;;;24.20;99.90;;;;;;5039410;28;20049;-40
2021/06/28 11:50:30;;;;;;;7.75;7.05;;;24.20;99.90;;;;;;5066411;28;20040;-41
2021/06/28 11:53:14;;;;;;;7.18;6.57;;;24.20;99.90;;;;;;5055702;28;20096;-41
2021/06/28 11:55:45;;;;;;;8.75;7.90;;;24.10;99.90;;;;;;5028309;28;20021;-43
2021/06/28 11:58:11;;;;;;;8.93;7.95;;;24.10;99.90;;;;;;5055474;28;20028;-41
2021/06/28 12:00:36;;;;;;;9.57;8.68;;;24.10;99.90;;;;;;5048311;28;20026;-41
2021/06/28 12:03:25;;;;;;;8.75;7.97;;;24.10;99.90;;;;;;5057065;28;20112;-41
2021/06/28 12:05:50;;;;;;;9.77;8.88;;;24.10;99.90;;;;;;5027304;28;20033;-43
2021/06/28 12:08:24;;;;;;;9.50;8.60;;;24.10;99.90;;;;;;5050919;28;20070;-42
2021/06/28 12:10:57;;;;;;;9.48;8.60;;;24.10;99.80;;;;;;5048607;28;20167;-40
2021/06/28 12:13:33;;;;;;;8.57;7.72;;;24.10;99.80;;;;;;5056612;28;20770;-41
2021/06/28 12:16:19;;;;;;;8.65;7.85;;;24.10;99.80;;;;;;5048890;28;20127;-40
2021/06/28 12:18:45;;;;;;;10.27;9.38;;;24.20;99.90;;;;;;5057633;28;20044;-41
2021/06/28 12:21:11;;;;;;;10.60;9.57;;;24.20;99.90;;;;;;5048033;28;20072;-41
2021/06/28 12:23:36;;;;;;;11.57;10.40;;;24.20;99.80;;;;;;5055699;28;20372;-41
2021/06/28 12:26:10;;;;;;;10.57;9.57;;;24.20;99.80;;;;;;5046431;28;20128;-40
2021/06/28 12:28:36;;;;;;;11.32;10.13;;;24.10;99.90;;;;;;5044690;28;20024;-41
2021/06/28 12:31:15;;;;;;;10.57;9.57;;;24.20;99.90;;;;;;5052097;28;20036;-40
2021/06/28 12:33:41;;;;;;;10.60;9.50;;;24.20;99.90;;;;;;5052220;28;20039;-40
2021/06/28 12:36:07;;;;;;;10.13;9.10;;;24.30;99.80;;;;;;5052848;28;20126;-41
2021/06/28 12:38:33;;;;;;;10.20;9.20;;;24.30;99.60;;;;;;5050828;28;20473;-41
2021/06/28 12:40:58;;;;;;;9.00;8.10;;;24.30;99.60;;;;;;5055247;28;20129;-41
2021/06/28 12:43:26;;;;;;;9.20;8.40;;;24.30;99.60;;;;;;5048783;28;20043;-41
2021/06/28 12:45:53;;;;;;;9.65;8.65;;;24.30;99.60;;;;;;5057902;28;20118;-40
2021/06/28 12:48:25;;;;;;;8.45;7.65;;;24.30;99.60;;;;;;5048356;28;20021;-41
2021/06/28 12:51:04;;;;;;;7.70;7.03;;;24.40;99.60;;;;;;5058215;28;20037;-42
2021/06/28 12:53:30;;;;;;;8.10;7.30;;;24.50;99.60;;;;;;5048496;28;20025;-40